Lansing, Kansas
Current Conditions -  °F | °C
As of 8:53 AM on Friday 24 Oct 2014 (Local Time) from KMCI Reporting Station
Haze Haze  
Wind Chill: 14°   Ceiling: 25000
Heat Index: 14°   Visibility: 1.5mi
Dew Point: 14°   Wind: 10mph
Humidity: 100%   Direction: 190°S
Pressure: 30.05"   Gusts: NA
Location:  39.24°N, 94.9°W
Report Text: KMCI 241353Z 19009KT 1 1/2SM BR FEW005 BKN250 14/14 A3005 RMK AO2 SFC VIS 4 SLP172 T01390139
Loading
Personal Weather Stations






























Interactive Weather Map
Tropical Storm Tracking
New forecast layout! Learn more

10-Day Weather Forecast

Advertisements
Track Severe Weather on mobile